sensor_id;sensor_type;location;lat;lon;timestamp;P1;durP1;ratioP1;P2;durP2;ratioP2
77076;SDS011;66003;52.286;104.306;2023-10-31T00:01:57;4.65;;;2.80;;
77076;SDS011;66003;52.286;104.306;2023-10-31T00:04:23;8.27;;;2.67;;
77076;SDS011;66003;52.286;104.306;2023-10-31T00:06:49;6.90;;;2.55;;
77076;SDS011;66003;52.286;104.306;2023-10-31T00:09:16;10.73;;;4.18;;
77076;SDS011;66003;52.286;104.306;2023-10-31T00:11:42;14.30;;;4.35;;
77076;SDS011;66003;52.286;104.306;2023-10-31T00:14:09;10.73;;;4.18;;
77076;SDS011;66003;52.286;104.306;2023-10-31T00:16:35;8.10;;;3.50;;
77076;SDS011;66003;52.286;104.306;2023-10-31T00:19:01;7.03;;;5.55;;
77076;SDS011;66003;52.286;104.306;2023-10-31T00:21:28;6.60;;;4.25;;
77076;SDS011;66003;52.286;104.306;2023-10-31T00:23:54;11.18;;;5.07;;
77076;SDS011;66003;52.286;104.306;2023-10-31T00:26:20;10.60;;;4.05;;
77076;SDS011;66003;52.286;104.306;2023-10-31T00:28:46;11.15;;;3.95;;
77076;SDS011;66003;52.286;104.306;2023-10-31T00:31:12;10.90;;;3.58;;
77076;SDS011;66003;52.286;104.306;2023-10-31T00:33:39;8.48;;;3.40;;
77076;SDS011;66003;52.286;104.306;2023-10-31T00:36:06;6.88;;;3.28;;
77076;SDS011;66003;52.286;104.306;2023-10-31T00:38:33;9.48;;;3.08;;
77076;SDS011;66003;52.286;104.306;2023-10-31T00:41:00;9.35;;;3.78;;
77076;SDS011;66003;52.286;104.306;2023-10-31T00:43:26;9.63;;;3.40;;
77076;SDS011;66003;52.286;104.306;2023-10-31T00:45:52;5.55;;;3.13;;
77076;SDS011;66003;52.286;104.306;2023-10-31T00:50:45;8.93;;;6.25;;
77076;SDS011;66003;52.286;104.306;2023-10-31T00:53:12;5.60;;;3.40;;
77076;SDS011;66003;52.286;104.306;2023-10-31T00:55:40;9.00;;;4.00;;
77076;SDS011;66003;52.286;104.306;2023-10-31T00:58:07;9.55;;;2.65;;
77076;SDS011;66003;52.286;104.306;2023-10-31T01:00:33;7.30;;;3.08;;
77076;SDS011;66003;52.286;104.306;2023-10-31T01:03:03;4.57;;;2.80;;
77076;SDS011;66003;52.286;104.306;2023-10-31T01:05:29;5.30;;;3.10;;
77076;SDS011;66003;52.286;104.306;2023-10-31T01:07:55;11.18;;;3.13;;
77076;SDS011;66003;52.286;104.306;2023-10-31T01:10:21;12.73;;;4.00;;
77076;SDS011;66003;52.286;104.306;2023-10-31T01:12:48;10.30;;;3.60;;
77076;SDS011;66003;52.286;104.306;2023-10-31T01:15:14;10.98;;;5.07;;
77076;SDS011;66003;52.286;104.306;2023-10-31T01:17:40;6.65;;;3.97;;
77076;SDS011;66003;52.286;104.306;2023-10-31T01:20:07;10.70;;;4.15;;
77076;SDS011;66003;52.286;104.306;2023-10-31T01:22:34;5.07;;;3.60;;
77076;SDS011;66003;52.286;104.306;2023-10-31T01:25:01;10.27;;;4.85;;
77076;SDS011;66003;52.286;104.306;2023-10-31T01:27:30;11.15;;;4.80;;
77076;SDS011;66003;52.286;104.306;2023-10-31T01:29:56;7.93;;;4.90;;
77076;SDS011;66003;52.286;104.306;2023-10-31T01:32:22;12.65;;;5.07;;
77076;SDS011;66003;52.286;104.306;2023-10-31T01:34:48;13.48;;;5.00;;
77076;SDS011;66003;52.286;104.306;2023-10-31T01:37:14;4.32;;;3.25;;
77076;SDS011;66003;52.286;104.306;2023-10-31T01:39:41;14.02;;;4.97;;
77076;SDS011;66003;52.286;104.306;2023-10-31T01:42:07;10.90;;;4.38;;
77076;SDS011;66003;52.286;104.306;2023-10-31T01:44:33;16.80;;;5.35;;
77076;SDS011;66003;52.286;104.306;2023-10-31T01:46:59;10.38;;;6.10;;
77076;SDS011;66003;52.286;104.306;2023-10-31T01:49:25;8.93;;;3.65;;
77076;SDS011;66003;52.286;104.306;2023-10-31T01:51:51;6.97;;;3.90;;
77076;SDS011;66003;52.286;104.306;2023-10-31T01:54:18;12.88;;;5.25;;
77076;SDS011;66003;52.286;104.306;2023-10-31T01:56:44;12.50;;;4.47;;
77076;SDS011;66003;52.286;104.306;2023-10-31T01:59:13;12.27;;;5.18;;
77076;SDS011;66003;52.286;104.306;2023-10-31T02:01:40;12.48;;;4.97;;
77076;SDS011;66003;52.286;104.306;2023-10-31T02:04:07;8.80;;;4.88;;
77076;SDS011;66003;52.286;104.306;2023-10-31T02:06:33;12.75;;;4.47;;
77076;SDS011;66003;52.286;104.306;2023-10-31T02:08:59;8.63;;;4.43;;
77076;SDS011;66003;52.286;104.306;2023-10-31T02:11:26;13.90;;;6.47;;
77076;SDS011;66003;52.286;104.306;2023-10-31T02:13:53;12.68;;;4.82;;
77076;SDS011;66003;52.286;104.306;2023-10-31T02:16:20;11.23;;;5.65;;
77076;SDS011;66003;52.286;104.306;2023-10-31T02:18:46;16.40;;;4.80;;
77076;SDS011;66003;52.286;104.306;2023-10-31T02:21:12;12.90;;;5.32;;
77076;SDS011;66003;52.286;104.306;2023-10-31T02:23:38;14.63;;;5.32;;
77076;SDS011;66003;52.286;104.306;2023-10-31T02:26:05;11.75;;;5.65;;
77076;SDS011;66003;52.286;104.306;2023-10-31T02:28:31;11.82;;;4.40;;
77076;SDS011;66003;52.286;104.306;2023-10-31T02:30:57;7.55;;;3.08;;
77076;SDS011;66003;52.286;104.306;2023-10-31T02:33:24;11.07;;;5.72;;
77076;SDS011;66003;52.286;104.306;2023-10-31T02:35:50;12.32;;;4.45;;
77076;SDS011;66003;52.286;104.306;2023-10-31T02:38:16;14.75;;;5.38;;
77076;SDS011;66003;52.286;104.306;2023-10-31T02:40:43;15.68;;;7.93;;
77076;SDS011;66003;52.286;104.306;2023-10-31T02:43:09;18.95;;;5.97;;
77076;SDS011;66003;52.286;104.306;2023-10-31T02:45:35;14.30;;;5.28;;
77076;SDS011;66003;52.286;104.306;2023-10-31T02:48:01;14.50;;;5.95;;
77076;SDS011;66003;52.286;104.306;2023-10-31T02:50:27;17.48;;;6.40;;
77076;SDS011;66003;52.286;104.306;2023-10-31T02:52:54;14.13;;;5.22;;
77076;SDS011;66003;52.286;104.306;2023-10-31T02:55:20;13.02;;;7.20;;
77076;SDS011;66003;52.286;104.306;2023-10-31T02:57:47;18.98;;;5.85;;
77076;SDS011;66003;52.286;104.306;2023-10-31T03:00:13;14.52;;;7.50;;
77076;SDS011;66003;52.286;104.306;2023-10-31T03:02:40;18.13;;;5.80;;
77076;SDS011;66003;52.286;104.306;2023-10-31T03:05:06;14.02;;;7.00;;
77076;SDS011;66003;52.286;104.306;2023-10-31T03:07:32;15.18;;;6.55;;
77076;SDS011;66003;52.286;104.306;2023-10-31T03:09:58;17.38;;;6.32;;
77076;SDS011;66003;52.286;104.306;2023-10-31T03:12:25;19.17;;;8.00;;
77076;SDS011;66003;52.286;104.306;2023-10-31T03:14:51;15.75;;;5.57;;
77076;SDS011;66003;52.286;104.306;2023-10-31T03:17:17;13.45;;;8.55;;
77076;SDS011;66003;52.286;104.306;2023-10-31T03:19:45;15.65;;;7.13;;
77076;SDS011;66003;52.286;104.306;2023-10-31T03:22:11;16.33;;;9.30;;
77076;SDS011;66003;52.286;104.306;2023-10-31T03:24:38;11.10;;;4.05;;
77076;SDS011;66003;52.286;104.306;2023-10-31T03:27:05;16.35;;;5.00;;
77076;SDS011;66003;52.286;104.306;2023-10-31T03:29:31;15.18;;;5.85;;
77076;SDS011;66003;52.286;104.306;2023-10-31T03:31:57;14.88;;;6.22;;
77076;SDS011;66003;52.286;104.306;2023-10-31T03:34:24;14.73;;;4.57;;
77076;SDS011;66003;52.286;104.306;2023-10-31T03:36:50;14.25;;;4.72;;
77076;SDS011;66003;52.286;104.306;2023-10-31T03:39:16;16.13;;;6.03;;
77076;SDS011;66003;52.286;104.306;2023-10-31T03:41:42;15.45;;;6.55;;
77076;SDS011;66003;52.286;104.306;2023-10-31T03:44:08;19.17;;;11.95;;
77076;SDS011;66003;52.286;104.306;2023-10-31T03:46:34;13.80;;;6.57;;
77076;SDS011;66003;52.286;104.306;2023-10-31T03:49:01;19.52;;;6.90;;
77076;SDS011;66003;52.286;104.306;2023-10-31T03:51:27;13.98;;;5.57;;
77076;SDS011;66003;52.286;104.306;2023-10-31T03:53:53;11.38;;;8.00;;
77076;SDS011;66003;52.286;104.306;2023-10-31T03:56:19;13.52;;;8.02;;
77076;SDS011;66003;52.286;104.306;2023-10-31T03:58:46;15.80;;;9.18;;
77076;SDS011;66003;52.286;104.306;2023-10-31T04:01:12;9.18;;;4.32;;
77076;SDS011;66003;52.286;104.306;2023-10-31T04:03:38;13.20;;;5.40;;
77076;SDS011;66003;52.286;104.306;2023-10-31T04:06:04;17.80;;;6.53;;
77076;SDS011;66003;52.286;104.306;2023-10-31T04:08:30;17.58;;;7.25;;
77076;SDS011;66003;52.286;104.306;2023-10-31T04:10:56;15.48;;;6.40;;
77076;SDS011;66003;52.286;104.306;2023-10-31T04:13:23;17.75;;;5.88;;
77076;SDS011;66003;52.286;104.306;2023-10-31T04:15:49;14.13;;;5.40;;
77076;SDS011;66003;52.286;104.306;2023-10-31T04:18:15;15.60;;;6.20;;
77076;SDS011;66003;52.286;104.306;2023-10-31T04:20:42;13.68;;;5.07;;
77076;SDS011;66003;52.286;104.306;2023-10-31T04:23:08;15.90;;;6.03;;
77076;SDS011;66003;52.286;104.306;2023-10-31T04:25:35;14.27;;;6.00;;
77076;SDS011;66003;52.286;104.306;2023-10-31T04:28:01;14.38;;;8.80;;
77076;SDS011;66003;52.286;104.306;2023-10-31T04:30:27;12.80;;;3.90;;
77076;SDS011;66003;52.286;104.306;2023-10-31T04:32:54;7.72;;;3.33;;
77076;SDS011;66003;52.286;104.306;2023-10-31T04:35:20;12.10;;;7.05;;
77076;SDS011;66003;52.286;104.306;2023-10-31T04:37:46;9.02;;;3.75;;
77076;SDS011;66003;52.286;104.306;2023-10-31T04:40:12;17.02;;;5.55;;
77076;SDS011;66003;52.286;104.306;2023-10-31T04:42:39;15.88;;;5.93;;
77076;SDS011;66003;52.286;104.306;2023-10-31T04:45:06;10.93;;;7.25;;
77076;SDS011;66003;52.286;104.306;2023-10-31T04:49:59;13.70;;;5.05;;
77076;SDS011;66003;52.286;104.306;2023-10-31T04:52:25;12.98;;;4.88;;
77076;SDS011;66003;52.286;104.306;2023-10-31T04:54:51;8.88;;;3.53;;
77076;SDS011;66003;52.286;104.306;2023-10-31T04:57:18;16.40;;;5.75;;
77076;SDS011;66003;52.286;104.306;2023-10-31T04:59:44;17.65;;;5.93;;
77076;SDS011;66003;52.286;104.306;2023-10-31T05:02:10;21.30;;;5.38;;
77076;SDS011;66003;52.286;104.306;2023-10-31T05:04:39;10.70;;;4.82;;
77076;SDS011;66003;52.286;104.306;2023-10-31T05:07:06;13.65;;;5.32;;
77076;SDS011;66003;52.286;104.306;2023-10-31T05:09:32;11.52;;;4.80;;
77076;SDS011;66003;52.286;104.306;2023-10-31T05:11:58;12.00;;;5.00;;
77076;SDS011;66003;52.286;104.306;2023-10-31T05:14:24;22.25;;;5.10;;
77076;SDS011;66003;52.286;104.306;2023-10-31T05:16:50;13.93;;;5.20;;
77076;SDS011;66003;52.286;104.306;2023-10-31T05:19:16;15.32;;;5.00;;
77076;SDS011;66003;52.286;104.306;2023-10-31T05:21:42;13.93;;;7.45;;
77076;SDS011;66003;52.286;104.306;2023-10-31T05:24:08;13.45;;;5.38;;
77076;SDS011;66003;52.286;104.306;2023-10-31T05:26:35;18.70;;;5.50;;
77076;SDS011;66003;52.286;104.306;2023-10-31T05:29:01;11.50;;;4.15;;
77076;SDS011;66003;52.286;104.306;2023-10-31T05:31:27;15.95;;;4.30;;
77076;SDS011;66003;52.286;104.306;2023-10-31T05:33:53;17.30;;;5.60;;
77076;SDS011;66003;52.286;104.306;2023-10-31T05:36:20;15.90;;;4.38;;
77076;SDS011;66003;52.286;104.306;2023-10-31T05:38:48;13.55;;;7.53;;
77076;SDS011;66003;52.286;104.306;2023-10-31T05:41:14;15.35;;;4.72;;
77076;SDS011;66003;52.286;104.306;2023-10-31T05:43:41;13.85;;;5.13;;
77076;SDS011;66003;52.286;104.306;2023-10-31T05:46:07;15.48;;;6.65;;
77076;SDS011;66003;52.286;104.306;2023-10-31T05:48:38;16.15;;;7.68;;
77076;SDS011;66003;52.286;104.306;2023-10-31T05:51:15;12.25;;;5.63;;
77076;SDS011;66003;52.286;104.306;2023-10-31T05:53:44;14.27;;;5.13;;
77076;SDS011;66003;52.286;104.306;2023-10-31T05:56:14;15.90;;;5.90;;
77076;SDS011;66003;52.286;104.306;2023-10-31T05:58:41;18.48;;;5.43;;
77076;SDS011;66003;52.286;104.306;2023-10-31T06:01:08;11.73;;;5.10;;
77076;SDS011;66003;52.286;104.306;2023-10-31T06:03:34;14.90;;;5.45;;
77076;SDS011;66003;52.286;104.306;2023-10-31T06:06:01;15.38;;;6.70;;
77076;SDS011;66003;52.286;104.306;2023-10-31T06:08:27;21.55;;;6.10;;
77076;SDS011;66003;52.286;104.306;2023-10-31T06:10:57;18.70;;;6.85;;
77076;SDS011;66003;52.286;104.306;2023-10-31T06:13:25;20.60;;;5.85;;
77076;SDS011;66003;52.286;104.306;2023-10-31T06:15:53;18.15;;;6.65;;
77076;SDS011;66003;52.286;104.306;2023-10-31T06:18:20;19.23;;;5.00;;
77076;SDS011;66003;52.286;104.306;2023-10-31T06:20:47;23.63;;;5.00;;
77076;SDS011;66003;52.286;104.306;2023-10-31T06:23:13;15.65;;;4.68;;
77076;SDS011;66003;52.286;104.306;2023-10-31T06:25:39;12.05;;;4.43;;
77076;SDS011;66003;52.286;104.306;2023-10-31T06:28:05;15.38;;;5.63;;
77076;SDS011;66003;52.286;104.306;2023-10-31T06:30:31;16.90;;;4.60;;
77076;SDS011;66003;52.286;104.306;2023-10-31T06:32:58;15.73;;;6.82;;
77076;SDS011;66003;52.286;104.306;2023-10-31T06:35:24;21.85;;;5.18;;
77076;SDS011;66003;52.286;104.306;2023-10-31T06:37:51;12.32;;;5.20;;
77076;SDS011;66003;52.286;104.306;2023-10-31T06:40:18;16.98;;;4.13;;
77076;SDS011;66003;52.286;104.306;2023-10-31T06:42:44;11.68;;;5.10;;
77076;SDS011;66003;52.286;104.306;2023-10-31T06:45:10;16.98;;;7.30;;
77076;SDS011;66003;52.286;104.306;2023-10-31T06:47:36;17.08;;;6.07;;
77076;SDS011;66003;52.286;104.306;2023-10-31T06:50:02;15.23;;;5.25;;
77076;SDS011;66003;52.286;104.306;2023-10-31T06:52:30;9.38;;;2.30;;
77076;SDS011;66003;52.286;104.306;2023-10-31T06:54:56;24.55;;;5.93;;
77076;SDS011;66003;52.286;104.306;2023-10-31T06:57:22;16.90;;;4.80;;
77076;SDS011;66003;52.286;104.306;2023-10-31T06:59:48;22.63;;;7.80;;
77076;SDS011;66003;52.286;104.306;2023-10-31T07:02:14;18.55;;;5.95;;
77076;SDS011;66003;52.286;104.306;2023-10-31T07:04:41;16.05;;;6.18;;
77076;SDS011;66003;52.286;104.306;2023-10-31T07:07:07;9.00;;;4.20;;
77076;SDS011;66003;52.286;104.306;2023-10-31T07:09:33;21.00;;;7.30;;
77076;SDS011;66003;52.286;104.306;2023-10-31T07:11:59;24.00;;;7.22;;
77076;SDS011;66003;52.286;104.306;2023-10-31T07:14:25;10.00;;;2.75;;
77076;SDS011;66003;52.286;104.306;2023-10-31T07:16:51;20.73;;;9.38;;
77076;SDS011;66003;52.286;104.306;2023-10-31T07:19:17;26.52;;;8.15;;
77076;SDS011;66003;52.286;104.306;2023-10-31T07:21:43;18.40;;;5.55;;
77076;SDS011;66003;52.286;104.306;2023-10-31T07:24:10;14.07;;;4.68;;
77076;SDS011;66003;52.286;104.306;2023-10-31T07:26:36;14.27;;;4.97;;
77076;SDS011;66003;52.286;104.306;2023-10-31T07:31:29;24.40;;;6.80;;
77076;SDS011;66003;52.286;104.306;2023-10-31T07:33:55;18.73;;;6.35;;
77076;SDS011;66003;52.286;104.306;2023-10-31T07:36:22;16.33;;;4.47;;
77076;SDS011;66003;52.286;104.306;2023-10-31T07:38:48;11.77;;;4.22;;
77076;SDS011;66003;52.286;104.306;2023-10-31T07:41:14;21.42;;;6.35;;
77076;SDS011;66003;52.286;104.306;2023-10-31T07:43:40;16.13;;;5.20;;
77076;SDS011;66003;52.286;104.306;2023-10-31T07:46:06;21.42;;;5.63;;
77076;SDS011;66003;52.286;104.306;2023-10-31T07:48:32;17.33;;;7.00;;
77076;SDS011;66003;52.286;104.306;2023-10-31T07:50:58;15.95;;;5.78;;
77076;SDS011;66003;52.286;104.306;2023-10-31T07:53:25;19.55;;;6.22;;
77076;SDS011;66003;52.286;104.306;2023-10-31T07:55:51;17.95;;;5.57;;
77076;SDS011;66003;52.286;104.306;2023-10-31T07:58:17;14.13;;;6.47;;
77076;SDS011;66003;52.286;104.306;2023-10-31T08:00:43;20.63;;;6.15;;
77076;SDS011;66003;52.286;104.306;2023-10-31T08:03:09;10.75;;;4.75;;
77076;SDS011;66003;52.286;104.306;2023-10-31T08:05:35;16.45;;;6.55;;
77076;SDS011;66003;52.286;104.306;2023-10-31T08:08:02;18.52;;;6.68;;
77076;SDS011;66003;52.286;104.306;2023-10-31T08:10:28;26.08;;;6.80;;
77076;SDS011;66003;52.286;104.306;2023-10-31T08:12:54;17.60;;;6.15;;
77076;SDS011;66003;52.286;104.306;2023-10-31T08:15:20;18.20;;;6.68;;
77076;SDS011;66003;52.286;104.306;2023-10-31T08:17:46;16.98;;;5.93;;
77076;SDS011;66003;52.286;104.306;2023-10-31T08:20:12;17.33;;;6.32;;
77076;SDS011;66003;52.286;104.306;2023-10-31T08:22:40;16.67;;;5.22;;
77076;SDS011;66003;52.286;104.306;2023-10-31T08:25:08;25.98;;;7.13;;
77076;SDS011;66003;52.286;104.306;2023-10-31T08:27:34;22.77;;;5.93;;
77076;SDS011;66003;52.286;104.306;2023-10-31T08:30:01;19.10;;;5.50;;
77076;SDS011;66003;52.286;104.306;2023-10-31T08:32:32;22.23;;;9.35;;
77076;SDS011;66003;52.286;104.306;2023-10-31T08:34:58;19.55;;;6.50;;
77076;SDS011;66003;52.286;104.306;2023-10-31T08:39:51;24.60;;;5.82;;
77076;SDS011;66003;52.286;104.306;2023-10-31T08:42:17;28.23;;;7.50;;
77076;SDS011;66003;52.286;104.306;2023-10-31T08:44:43;26.55;;;7.63;;
77076;SDS011;66003;52.286;104.306;2023-10-31T08:47:09;26.17;;;7.03;;
77076;SDS011;66003;52.286;104.306;2023-10-31T08:49:37;19.65;;;7.82;;
77076;SDS011;66003;52.286;104.306;2023-10-31T08:52:04;19.17;;;7.40;;
77076;SDS011;66003;52.286;104.306;2023-10-31T08:54:30;22.52;;;7.15;;
77076;SDS011;66003;52.286;104.306;2023-10-31T08:56:57;20.38;;;7.93;;
77076;SDS011;66003;52.286;104.306;2023-10-31T08:59:23;21.75;;;9.00;;
77076;SDS011;66003;52.286;104.306;2023-10-31T09:01:49;26.13;;;7.68;;
77076;SDS011;66003;52.286;104.306;2023-10-31T09:04:15;18.65;;;6.80;;
77076;SDS011;66003;52.286;104.306;2023-10-31T09:06:42;30.00;;;8.93;;
77076;SDS011;66003;52.286;104.306;2023-10-31T09:09:08;23.27;;;7.55;;
77076;SDS011;66003;52.286;104.306;2023-10-31T09:11:36;27.23;;;7.65;;
77076;SDS011;66003;52.286;104.306;2023-10-31T09:14:02;30.83;;;10.13;;
77076;SDS011;66003;52.286;104.306;2023-10-31T09:16:28;30.05;;;8.02;;
77076;SDS011;66003;52.286;104.306;2023-10-31T09:18:55;25.45;;;9.88;;
77076;SDS011;66003;52.286;104.306;2023-10-31T09:21:21;24.98;;;7.70;;
77076;SDS011;66003;52.286;104.306;2023-10-31T09:23:47;32.00;;;8.23;;
77076;SDS011;66003;52.286;104.306;2023-10-31T09:26:14;29.02;;;8.27;;
77076;SDS011;66003;52.286;104.306;2023-10-31T09:28:40;22.73;;;7.28;;
77076;SDS011;66003;52.286;104.306;2023-10-31T09:31:17;30.33;;;9.02;;
77076;SDS011;66003;52.286;104.306;2023-10-31T09:33:45;19.38;;;6.70;;
77076;SDS011;66003;52.286;104.306;2023-10-31T09:36:11;27.60;;;9.02;;
77076;SDS011;66003;52.286;104.306;2023-10-31T09:38:39;24.10;;;6.75;;
77076;SDS011;66003;52.286;104.306;2023-10-31T09:41:06;20.92;;;7.68;;
77076;SDS011;66003;52.286;104.306;2023-10-31T09:43:32;27.58;;;7.47;;
77076;SDS011;66003;52.286;104.306;2023-10-31T09:45:58;26.58;;;10.02;;
77076;SDS011;66003;52.286;104.306;2023-10-31T09:48:28;30.65;;;9.23;;
77076;SDS011;66003;52.286;104.306;2023-10-31T09:50:55;38.83;;;9.27;;
77076;SDS011;66003;52.286;104.306;2023-10-31T09:53:23;35.63;;;9.15;;
77076;SDS011;66003;52.286;104.306;2023-10-31T09:55:51;26.42;;;9.65;;
77076;SDS011;66003;52.286;104.306;2023-10-31T09:58:19;30.25;;;8.93;;
77076;SDS011;66003;52.286;104.306;2023-10-31T10:00:45;31.67;;;12.00;;
77076;SDS011;66003;52.286;104.306;2023-10-31T10:03:12;25.13;;;7.55;;
77076;SDS011;66003;52.286;104.306;2023-10-31T10:05:38;29.27;;;9.90;;
77076;SDS011;66003;52.286;104.306;2023-10-31T10:08:06;32.38;;;8.18;;
77076;SDS011;66003;52.286;104.306;2023-10-31T10:10:35;25.92;;;6.60;;
77076;SDS011;66003;52.286;104.306;2023-10-31T10:13:02;27.45;;;6.78;;
77076;SDS011;66003;52.286;104.306;2023-10-31T10:15:28;19.45;;;6.57;;
77076;SDS011;66003;52.286;104.306;2023-10-31T10:17:55;31.98;;;10.85;;
77076;SDS011;66003;52.286;104.306;2023-10-31T10:20:21;20.55;;;7.28;;
77076;SDS011;66003;52.286;104.306;2023-10-31T10:22:47;17.23;;;6.35;;
77076;SDS011;66003;52.286;104.306;2023-10-31T10:25:14;17.90;;;5.63;;
77076;SDS011;66003;52.286;104.306;2023-10-31T10:27:43;15.68;;;7.88;;
77076;SDS011;66003;52.286;104.306;2023-10-31T10:30:09;13.00;;;5.78;;
77076;SDS011;66003;52.286;104.306;2023-10-31T10:32:37;15.75;;;5.63;;
77076;SDS011;66003;52.286;104.306;2023-10-31T10:35:04;16.88;;;5.10;;
77076;SDS011;66003;52.286;104.306;2023-10-31T10:37:31;12.95;;;5.40;;
77076;SDS011;66003;52.286;104.306;2023-10-31T10:39:58;14.00;;;4.35;;
77076;SDS011;66003;52.286;104.306;2023-10-31T10:42:45;17.05;;;5.80;;
77076;SDS011;66003;52.286;104.306;2023-10-31T10:45:12;16.63;;;4.80;;
77076;SDS011;66003;52.286;104.306;2023-10-31T10:47:43;12.63;;;5.78;;
77076;SDS011;66003;52.286;104.306;2023-10-31T10:50:12;11.75;;;4.32;;
77076;SDS011;66003;52.286;104.306;2023-10-31T10:52:44;8.65;;;4.30;;
77076;SDS011;66003;52.286;104.306;2023-10-31T10:55:23;10.95;;;3.17;;
77076;SDS011;66003;52.286;104.306;2023-10-31T10:58:03;12.18;;;6.50;;
77076;SDS011;66003;52.286;104.306;2023-10-31T11:00:34;8.30;;;3.05;;
77076;SDS011;66003;52.286;104.306;2023-10-31T11:03:00;11.38;;;4.28;;
77076;SDS011;66003;52.286;104.306;2023-10-31T11:05:28;12.48;;;3.78;;
77076;SDS011;66003;52.286;104.306;2023-10-31T11:07:56;12.13;;;3.97;;
77076;SDS011;66003;52.286;104.306;2023-10-31T11:10:24;15.05;;;5.45;;
77076;SDS011;66003;52.286;104.306;2023-10-31T11:15:17;8.50;;;4.00;;
77076;SDS011;66003;52.286;104.306;2023-10-31T11:17:44;8.48;;;3.50;;
77076;SDS011;66003;52.286;104.306;2023-10-31T11:20:13;9.10;;;3.92;;
77076;SDS011;66003;52.286;104.306;2023-10-31T11:22:41;8.75;;;4.85;;
77076;SDS011;66003;52.286;104.306;2023-10-31T11:25:10;7.53;;;4.60;;
77076;SDS011;66003;52.286;104.306;2023-10-31T11:27:53;11.68;;;5.13;;
77076;SDS011;66003;52.286;104.306;2023-10-31T11:30:26;19.02;;;4.70;;
77076;SDS011;66003;52.286;104.306;2023-10-31T11:32:55;10.35;;;5.93;;
77076;SDS011;66003;52.286;104.306;2023-10-31T11:35:23;10.23;;;4.30;;
77076;SDS011;66003;52.286;104.306;2023-10-31T11:37:50;12.32;;;4.93;;
77076;SDS011;66003;52.286;104.306;2023-10-31T11:40:29;14.45;;;4.57;;
77076;SDS011;66003;52.286;104.306;2023-10-31T11:43:00;13.43;;;4.95;;
77076;SDS011;66003;52.286;104.306;2023-10-31T11:45:34;14.00;;;7.80;;
77076;SDS011;66003;52.286;104.306;2023-10-31T11:48:03;9.27;;;4.20;;
77076;SDS011;66003;52.286;104.306;2023-10-31T11:50:30;10.75;;;4.38;;
77076;SDS011;66003;52.286;104.306;2023-10-31T11:55:44;10.57;;;4.40;;
77076;SDS011;66003;52.286;104.306;2023-10-31T11:58:14;10.95;;;4.10;;
77076;SDS011;66003;52.286;104.306;2023-10-31T12:00:51;15.45;;;4.20;;
77076;SDS011;66003;52.286;104.306;2023-10-31T12:03:26;11.70;;;4.95;;
77076;SDS011;66003;52.286;104.306;2023-10-31T12:11:03;13.32;;;5.40;;
77076;SDS011;66003;52.286;104.306;2023-10-31T12:13:30;16.58;;;6.43;;
77076;SDS011;66003;52.286;104.306;2023-10-31T12:15:57;22.35;;;7.95;;
77076;SDS011;66003;52.286;104.306;2023-10-31T12:18:23;19.52;;;6.43;;
77076;SDS011;66003;52.286;104.306;2023-10-31T12:20:50;15.48;;;5.82;;
77076;SDS011;66003;52.286;104.306;2023-10-31T12:23:18;16.75;;;6.75;;
77076;SDS011;66003;52.286;104.306;2023-10-31T12:25:47;14.32;;;5.05;;
77076;SDS011;66003;52.286;104.306;2023-10-31T12:28:18;17.98;;;8.98;;
77076;SDS011;66003;52.286;104.306;2023-10-31T12:30:45;14.00;;;5.72;;
77076;SDS011;66003;52.286;104.306;2023-10-31T12:33:12;11.93;;;4.40;;
77076;SDS011;66003;52.286;104.306;2023-10-31T12:35:39;13.50;;;4.72;;
77076;SDS011;66003;52.286;104.306;2023-10-31T12:38:06;12.40;;;4.63;;
77076;SDS011;66003;52.286;104.306;2023-10-31T12:40:37;13.20;;;5.50;;
77076;SDS011;66003;52.286;104.306;2023-10-31T12:43:04;15.20;;;4.78;;
77076;SDS011;66003;52.286;104.306;2023-10-31T12:45:30;16.77;;;4.70;;
77076;SDS011;66003;52.286;104.306;2023-10-31T12:48:03;14.98;;;8.00;;
77076;SDS011;66003;52.286;104.306;2023-10-31T12:50:31;13.27;;;5.93;;
77076;SDS011;66003;52.286;104.306;2023-10-31T12:52:59;15.10;;;6.30;;
77076;SDS011;66003;52.286;104.306;2023-10-31T12:55:29;17.33;;;5.25;;
77076;SDS011;66003;52.286;104.306;2023-10-31T12:57:57;13.23;;;4.55;;
77076;SDS011;66003;52.286;104.306;2023-10-31T13:00:33;8.60;;;4.68;;
77076;SDS011;66003;52.286;104.306;2023-10-31T13:05:31;16.30;;;7.30;;
77076;SDS011;66003;52.286;104.306;2023-10-31T13:08:02;16.98;;;7.95;;
77076;SDS011;66003;52.286;104.306;2023-10-31T13:10:30;17.83;;;6.57;;
77076;SDS011;66003;52.286;104.306;2023-10-31T13:12:58;13.07;;;5.53;;
77076;SDS011;66003;52.286;104.306;2023-10-31T13:15:26;18.02;;;5.85;;
77076;SDS011;66003;52.286;104.306;2023-10-31T13:17:52;14.88;;;5.47;;
77076;SDS011;66003;52.286;104.306;2023-10-31T13:20:20;13.85;;;5.75;;
77076;SDS011;66003;52.286;104.306;2023-10-31T13:22:47;14.55;;;6.15;;
77076;SDS011;66003;52.286;104.306;2023-10-31T13:25:14;14.00;;;5.45;;
77076;SDS011;66003;52.286;104.306;2023-10-31T13:27:42;11.45;;;4.30;;
77076;SDS011;66003;52.286;104.306;2023-10-31T13:30:10;10.55;;;4.90;;
77076;SDS011;66003;52.286;104.306;2023-10-31T13:32:38;12.32;;;5.72;;
77076;SDS011;66003;52.286;104.306;2023-10-31T13:35:05;9.90;;;5.13;;
77076;SDS011;66003;52.286;104.306;2023-10-31T13:37:36;13.63;;;5.20;;
77076;SDS011;66003;52.286;104.306;2023-10-31T13:40:03;12.50;;;4.90;;
77076;SDS011;66003;52.286;104.306;2023-10-31T13:42:34;15.63;;;5.88;;
77076;SDS011;66003;52.286;104.306;2023-10-31T13:45:01;11.35;;;5.28;;
77076;SDS011;66003;52.286;104.306;2023-10-31T13:47:31;12.68;;;5.15;;
77076;SDS011;66003;52.286;104.306;2023-10-31T13:49:59;12.38;;;5.72;;
77076;SDS011;66003;52.286;104.306;2023-10-31T13:52:26;11.27;;;5.57;;
77076;SDS011;66003;52.286;104.306;2023-10-31T13:54:53;11.57;;;5.07;;
77076;SDS011;66003;52.286;104.306;2023-10-31T13:57:20;8.85;;;4.95;;
77076;SDS011;66003;52.286;104.306;2023-10-31T13:59:47;13.32;;;4.85;;
77076;SDS011;66003;52.286;104.306;2023-10-31T14:02:13;13.90;;;4.82;;
77076;SDS011;66003;52.286;104.306;2023-10-31T14:04:40;14.48;;;4.65;;
77076;SDS011;66003;52.286;104.306;2023-10-31T14:07:06;14.35;;;5.95;;
77076;SDS011;66003;52.286;104.306;2023-10-31T14:09:34;14.45;;;4.38;;
77076;SDS011;66003;52.286;104.306;2023-10-31T14:12:00;13.30;;;4.90;;
77076;SDS011;66003;52.286;104.306;2023-10-31T14:14:32;12.45;;;3.40;;
77076;SDS011;66003;52.286;104.306;2023-10-31T14:16:58;16.05;;;5.35;;
77076;SDS011;66003;52.286;104.306;2023-10-31T14:19:27;8.88;;;4.85;;
77076;SDS011;66003;52.286;104.306;2023-10-31T14:21:56;12.10;;;5.40;;
77076;SDS011;66003;52.286;104.306;2023-10-31T14:24:22;11.13;;;4.75;;
77076;SDS011;66003;52.286;104.306;2023-10-31T14:26:48;11.52;;;5.15;;
77076;SDS011;66003;52.286;104.306;2023-10-31T14:29:15;11.85;;;5.07;;
77076;SDS011;66003;52.286;104.306;2023-10-31T14:31:41;12.30;;;4.50;;
77076;SDS011;66003;52.286;104.306;2023-10-31T14:34:08;11.60;;;5.15;;